createdAt,value
2023-05-12T00:00:47.069Z,10.81
2023-05-12T00:03:13.399Z,10.35
2023-05-12T00:05:39.739Z,10.59
2023-05-12T00:08:06.035Z,10.93
2023-05-12T00:10:32.267Z,10.85
2023-05-12T00:12:58.514Z,10.83
2023-05-12T00:15:24.756Z,11.01
2023-05-12T00:17:51.056Z,10.58
2023-05-12T00:20:17.612Z,10.52
2023-05-12T00:22:44.952Z,10.89
2023-05-12T00:25:11.259Z,10.28
2023-05-12T00:27:37.501Z,10.75
2023-05-12T00:30:03.790Z,10.90
2023-05-12T00:32:30.128Z,11.00
2023-05-12T00:34:56.411Z,11.11
2023-05-12T00:37:22.709Z,11.23
2023-05-12T00:39:48.983Z,11.29
2023-05-12T00:42:15.215Z,11.19
2023-05-12T00:44:41.491Z,11.26
2023-05-12T00:47:07.778Z,10.78
2023-05-12T00:49:34.042Z,10.53
2023-05-12T00:52:00.297Z,10.85
2023-05-12T00:54:26.542Z,10.87
2023-05-12T00:56:52.802Z,11.08
2023-05-12T00:59:19.050Z,10.67
2023-05-12T01:01:45.299Z,10.59
2023-05-12T01:04:11.584Z,10.02
2023-05-12T01:06:37.834Z,10.11
2023-05-12T01:09:04.120Z,10.45
2023-05-12T01:11:30.384Z,10.68
2023-05-12T01:13:56.694Z,10.74
2023-05-12T01:16:22.992Z,10.78
2023-05-12T01:18:49.282Z,10.94
2023-05-12T01:21:15.624Z,10.80
2023-05-12T01:23:41.861Z,11.06
2023-05-12T01:26:08.152Z,10.92
2023-05-12T01:28:34.443Z,10.88
2023-05-12T01:31:00.729Z,11.05
2023-05-12T01:33:26.993Z,10.95
2023-05-12T01:35:53.255Z,11.21
2023-05-12T01:38:19.476Z,11.18
2023-05-12T01:40:45.696Z,11.28
2023-05-12T01:43:11.946Z,10.22
2023-05-12T01:45:38.205Z,10.62
2023-05-12T01:48:04.475Z,10.83
2023-05-12T01:50:30.763Z,10.77
2023-05-12T01:52:57.035Z,10.44
2023-05-12T01:55:23.280Z,10.22
2023-05-12T01:57:49.524Z,10.71
2023-05-12T02:00:15.787Z,10.41
2023-05-12T02:02:43.217Z,10.06
2023-05-12T02:05:09.691Z,9.45
2023-05-12T02:07:35.978Z,9.82
2023-05-12T02:10:02.235Z,9.95
2023-05-12T02:12:28.485Z,9.57
2023-05-12T02:14:54.731Z,9.51
2023-05-12T02:17:20.983Z,9.86
2023-05-12T02:19:47.204Z,10.00
2023-05-12T02:22:13.473Z,10.16
2023-05-12T02:24:39.713Z,10.33
2023-05-12T02:27:05.975Z,10.30
2023-05-12T02:29:32.300Z,10.28
2023-05-12T02:31:58.664Z,10.02
2023-05-12T02:34:24.925Z,10.01
2023-05-12T02:36:51.217Z,9.63
2023-05-12T02:39:17.529Z,8.88
2023-05-12T02:41:43.774Z,8.60
2023-05-12T02:44:10.022Z,9.28
2023-05-12T02:46:36.256Z,8.84
2023-05-12T02:49:02.495Z,8.60
2023-05-12T02:51:28.716Z,8.39
2023-05-12T02:53:54.990Z,8.38
2023-05-12T02:56:21.274Z,8.17
2023-05-12T02:58:47.488Z,8.14
2023-05-12T03:01:13.766Z,7.83
2023-05-12T03:03:40.242Z,7.95
2023-05-12T03:06:06.657Z,8.05
2023-05-12T03:08:32.911Z,8.04
2023-05-12T03:10:59.205Z,8.23
2023-05-12T03:13:25.444Z,8.32
2023-05-12T03:15:51.720Z,8.91
2023-05-12T03:18:17.997Z,9.59
2023-05-12T03:20:44.252Z,9.78
2023-05-12T03:23:10.535Z,9.53
2023-05-12T03:25:36.773Z,9.90
2023-05-12T03:28:02.988Z,10.09
2023-05-12T03:30:29.203Z,10.35
2023-05-12T03:32:55.478Z,10.28
2023-05-12T03:35:21.752Z,10.52
2023-05-12T03:37:48.041Z,10.47
2023-05-12T03:40:14.295Z,10.53
2023-05-12T03:42:40.528Z,10.66
2023-05-12T03:45:06.792Z,10.64
2023-05-12T03:47:33.157Z,10.14
2023-05-12T03:49:59.422Z,9.83
2023-05-12T03:52:25.700Z,9.83
2023-05-12T03:54:52.037Z,9.83
2023-05-12T03:57:18.264Z,9.94
2023-05-12T03:59:44.531Z,9.97
2023-05-12T04:02:10.819Z,10.05
2023-05-12T04:04:37.081Z,10.03
2023-05-12T04:07:03.346Z,10.28
2023-05-12T04:09:29.619Z,10.47
2023-05-12T04:11:55.868Z,9.97
2023-05-12T04:14:31.836Z,9.45
2023-05-12T04:17:05.769Z,9.12
2023-05-12T04:19:32.012Z,8.90
2023-05-12T04:21:58.251Z,9.47
2023-05-12T04:24:24.512Z,9.27
2023-05-12T04:26:50.799Z,9.53
2023-05-12T04:29:17.033Z,10.07
2023-05-12T04:31:43.416Z,10.03
2023-05-12T04:34:09.692Z,10.00
2023-05-12T04:36:35.967Z,10.17
2023-05-12T04:39:02.205Z,10.54
2023-05-12T04:41:28.596Z,10.11
2023-05-12T04:46:24.008Z,10.49
2023-05-12T04:48:50.345Z,10.76
2023-05-12T04:51:16.571Z,10.73
2023-05-12T04:53:42.789Z,10.62
2023-05-12T04:56:09.018Z,10.33
2023-05-12T04:58:35.331Z,10.39
2023-05-12T05:01:01.564Z,10.43
2023-05-12T05:03:27.942Z,9.99
2023-05-12T05:05:54.245Z,9.72
2023-05-12T05:08:20.502Z,10.02
2023-05-12T05:10:46.790Z,10.26
2023-05-12T05:13:13.055Z,10.56
2023-05-12T05:15:39.343Z,10.65
2023-05-12T05:18:05.693Z,10.57
2023-05-12T05:20:32.400Z,10.94
2023-05-12T05:22:59.008Z,10.93
2023-05-12T05:25:25.253Z,11.06
2023-05-12T05:27:51.578Z,10.31
2023-05-12T05:30:17.855Z,10.54
2023-05-12T05:32:44.157Z,10.77
2023-05-12T05:35:10.647Z,10.05
2023-05-12T05:37:36.912Z,10.04
2023-05-12T05:40:03.147Z,10.28
2023-05-12T05:42:29.498Z,10.10
2023-05-12T05:44:55.755Z,10.30
2023-05-12T05:47:22.039Z,9.99
2023-05-12T05:49:48.378Z,9.94
2023-05-12T05:52:14.631Z,9.84
2023-05-12T05:54:40.890Z,9.91
2023-05-12T05:57:07.138Z,10.19
2023-05-12T05:59:33.433Z,10.23
2023-05-12T06:01:59.719Z,10.28
2023-05-12T06:04:26.168Z,10.42
2023-05-12T06:06:52.530Z,10.52
2023-05-12T06:09:18.780Z,10.77
2023-05-12T06:11:45.070Z,10.29
2023-05-12T06:14:11.344Z,10.50
2023-05-12T06:16:37.658Z,10.83
2023-05-12T06:19:04.126Z,10.98
2023-05-12T06:21:30.477Z,10.23
2023-05-12T06:23:56.707Z,10.60
2023-05-12T06:26:22.993Z,10.56
2023-05-12T06:28:49.337Z,11.44
2023-05-12T06:31:15.547Z,11.11
2023-05-12T06:33:41.846Z,11.24
2023-05-12T06:36:08.179Z,11.72
2023-05-12T06:38:34.405Z,11.37
2023-05-12T06:41:00.626Z,11.56
2023-05-12T06:43:26.939Z,11.84
2023-05-12T06:45:53.209Z,12.26
2023-05-12T06:48:19.482Z,12.03
2023-05-12T06:50:45.826Z,12.23
2023-05-12T06:53:12.093Z,11.89
2023-05-12T06:55:38.313Z,11.61
2023-05-12T06:58:04.564Z,11.12
2023-05-12T07:00:31.530Z,11.16
2023-05-12T07:02:57.853Z,11.39
2023-05-12T07:05:24.334Z,10.91
2023-05-12T07:07:50.866Z,11.08
2023-05-12T07:10:17.089Z,10.98
2023-05-12T07:12:43.387Z,11.25
2023-05-12T07:15:09.718Z,10.88
2023-05-12T07:17:36.069Z,11.37
2023-05-12T07:20:02.464Z,11.72
2023-05-12T07:22:28.714Z,11.67
2023-05-12T07:24:54.991Z,11.79
2023-05-12T07:27:21.239Z,11.66
2023-05-12T07:29:47.517Z,11.70
2023-05-12T07:32:13.771Z,12.56
2023-05-12T07:34:40.075Z,12.99
2023-05-12T07:37:06.403Z,12.96
2023-05-12T07:39:32.721Z,13.02
2023-05-12T07:41:59.028Z,13.19
2023-05-12T07:44:25.273Z,13.32
2023-05-12T07:46:51.542Z,13.71
2023-05-12T07:49:17.867Z,13.74
2023-05-12T07:51:44.174Z,14.10
2023-05-12T07:54:10.410Z,14.04
2023-05-12T07:56:36.663Z,13.66
2023-05-12T07:59:02.951Z,14.12
2023-05-12T08:01:29.234Z,13.30
2023-05-12T08:03:55.590Z,13.56
2023-05-12T08:06:21.978Z,13.13
2023-05-12T08:08:48.247Z,13.08
2023-05-12T08:11:14.476Z,12.83
2023-05-12T08:13:40.784Z,12.50
2023-05-12T08:16:07.066Z,12.58
2023-05-12T08:18:33.368Z,12.22
2023-05-12T08:20:59.670Z,12.51
2023-05-12T08:23:27.465Z,11.98
2023-05-12T08:25:53.925Z,12.23
2023-05-12T08:28:20.181Z,12.87
2023-05-12T08:30:46.489Z,12.48
2023-05-12T08:33:12.737Z,12.28
2023-05-12T08:35:39.054Z,12.23
2023-05-12T08:38:05.357Z,12.18
2023-05-12T08:40:31.608Z,13.28
2023-05-12T08:42:59.241Z,13.51
2023-05-12T08:45:26.726Z,13.81
2023-05-12T08:47:52.965Z,13.85
2023-05-12T08:50:20.225Z,13.60
2023-05-12T08:52:46.476Z,13.16
2023-05-12T08:55:12.761Z,13.24
2023-05-12T08:57:40.230Z,12.93
2023-05-12T09:00:06.499Z,12.55
2023-05-12T09:02:41.315Z,12.50
2023-05-12T09:05:16.905Z,12.92
2023-05-12T09:07:43.158Z,12.88
2023-05-12T09:10:19.619Z,13.95
2023-05-12T09:12:52.602Z,13.90
2023-05-12T09:15:19.169Z,13.95
2023-05-12T09:17:45.630Z,14.39
2023-05-12T09:20:23.758Z,14.14
2023-05-12T09:22:56.954Z,14.10
2023-05-12T09:25:23.327Z,14.60
2023-05-12T09:27:49.549Z,14.57
2023-05-12T09:30:15.776Z,14.67
2023-05-12T09:32:42.120Z,14.05
2023-05-12T09:35:08.499Z,13.25
2023-05-12T09:37:34.734Z,14.07
2023-05-12T09:40:01.040Z,14.62
2023-05-12T09:42:27.320Z,14.99
2023-05-12T09:44:53.574Z,14.67
2023-05-12T09:47:19.900Z,14.46
2023-05-12T09:49:46.148Z,14.31
2023-05-12T09:52:12.375Z,14.89
2023-05-12T09:54:38.611Z,14.89
2023-05-12T09:57:04.975Z,15.06
2023-05-12T09:59:31.347Z,14.95
2023-05-12T10:01:57.595Z,14.47
2023-05-12T10:04:23.877Z,14.46
2023-05-12T10:06:50.132Z,14.36
2023-05-12T10:09:16.410Z,14.71
2023-05-12T10:11:42.649Z,14.15
2023-05-12T10:14:08.916Z,14.35
2023-05-12T10:16:35.398Z,14.46
2023-05-12T10:19:01.722Z,14.05
2023-05-12T10:21:28.016Z,13.60
2023-05-12T10:23:54.304Z,13.83
2023-05-12T10:26:20.563Z,13.29
2023-05-12T10:28:46.788Z,14.24
2023-05-12T10:31:13.072Z,14.39
2023-05-12T10:33:39.340Z,14.31
2023-05-12T10:36:05.601Z,14.30
2023-05-12T10:38:31.856Z,14.04
2023-05-12T10:40:58.105Z,13.98
2023-05-12T10:43:24.371Z,14.85
2023-05-12T10:45:50.737Z,14.68
2023-05-12T10:48:16.969Z,14.98
2023-05-12T10:50:43.209Z,15.03
2023-05-12T10:53:10.578Z,15.32
2023-05-12T10:55:37.047Z,15.73
2023-05-12T10:58:03.686Z,16.28
2023-05-12T11:00:30.527Z,15.77
2023-05-12T11:03:01.247Z,16.37
2023-05-12T11:05:31.722Z,15.52
2023-05-12T11:07:58.984Z,15.61
2023-05-12T11:10:26.484Z,15.74
2023-05-12T11:12:53.016Z,15.88
2023-05-12T11:15:19.643Z,15.90
2023-05-12T11:17:46.331Z,15.17
2023-05-12T11:20:12.632Z,15.01
2023-05-12T11:22:38.903Z,14.64
2023-05-12T11:25:05.165Z,14.23
2023-05-12T11:27:31.466Z,14.07
2023-05-12T11:29:57.772Z,14.06
2023-05-12T11:32:24.155Z,13.72
2023-05-12T11:34:50.472Z,13.67
2023-05-12T11:37:16.698Z,14.08
2023-05-12T11:39:42.918Z,13.92
2023-05-12T11:42:12.710Z,14.46
2023-05-12T11:44:39.968Z,15.12
2023-05-12T11:47:06.221Z,15.68
2023-05-12T11:49:32.462Z,14.91
2023-05-12T11:51:58.731Z,15.40
2023-05-12T11:54:24.970Z,15.09
2023-05-12T11:56:51.236Z,15.77
2023-05-12T11:59:17.468Z,16.69
2023-05-12T12:01:43.723Z,16.12
2023-05-12T12:04:09.973Z,16.83
2023-05-12T12:06:36.209Z,15.92
2023-05-12T12:09:02.456Z,15.75
2023-05-12T12:11:28.707Z,15.04
2023-05-12T12:13:54.936Z,15.09
2023-05-12T12:16:21.218Z,15.52
2023-05-12T12:18:50.612Z,15.15
2023-05-12T12:21:18.393Z,15.43
2023-05-12T12:23:51.419Z,15.98
2023-05-12T12:26:18.139Z,15.67
2023-05-12T12:28:44.424Z,15.52
2023-05-12T12:31:10.787Z,15.11
2023-05-12T12:33:37.028Z,15.27
2023-05-12T12:36:03.315Z,15.52
2023-05-12T12:38:29.555Z,15.16
2023-05-12T12:40:55.853Z,15.01
2023-05-12T12:43:22.234Z,15.33
2023-05-12T12:45:48.473Z,15.67
2023-05-12T12:48:14.798Z,15.31
2023-05-12T12:50:41.098Z,14.95
2023-05-12T12:53:07.363Z,15.54
2023-05-12T12:55:33.635Z,15.64
2023-05-12T12:57:59.878Z,15.67
2023-05-12T13:00:26.162Z,15.85
2023-05-12T13:02:52.631Z,15.80
2023-05-12T13:05:19.108Z,16.23
2023-05-12T13:07:45.593Z,16.73
2023-05-12T13:10:11.911Z,15.93
2023-05-12T13:12:38.174Z,16.60
2023-05-12T13:15:04.438Z,15.80
2023-05-12T13:17:30.745Z,15.50
2023-05-12T13:19:57.050Z,15.25
2023-05-12T13:22:23.279Z,15.48
2023-05-12T13:24:49.514Z,15.52
2023-05-12T13:27:15.787Z,15.55
2023-05-12T13:29:42.078Z,15.41
2023-05-12T13:32:08.338Z,15.58
2023-05-12T13:34:34.603Z,15.60
2023-05-12T13:37:00.855Z,15.87
2023-05-12T13:39:27.108Z,15.92
2023-05-12T13:41:53.388Z,16.49
2023-05-12T13:44:19.645Z,16.25
2023-05-12T13:46:45.951Z,16.95
2023-05-12T13:49:12.236Z,17.16
2023-05-12T13:51:38.498Z,17.12
2023-05-12T13:54:04.790Z,17.06
2023-05-12T13:56:31.102Z,16.92
2023-05-12T13:58:57.387Z,16.36
2023-05-12T14:01:23.711Z,15.78
2023-05-12T14:03:49.998Z,15.46
2023-05-12T14:06:16.291Z,15.26
2023-05-12T14:08:42.594Z,15.84
2023-05-12T14:11:08.824Z,16.28
2023-05-12T14:13:35.040Z,16.26
2023-05-12T14:16:01.301Z,15.84
2023-05-12T14:18:27.640Z,15.77
2023-05-12T14:20:53.910Z,15.73
2023-05-12T14:23:20.229Z,15.52
2023-05-12T14:25:46.516Z,14.91
2023-05-12T14:28:12.813Z,15.03
2023-05-12T14:30:39.119Z,14.68
2023-05-12T14:33:05.435Z,15.07
2023-05-12T14:35:31.686Z,15.25
2023-05-12T14:37:57.991Z,15.66
2023-05-12T14:40:24.354Z,15.79
2023-05-12T14:42:50.634Z,15.89
2023-05-12T14:45:16.931Z,16.22
2023-05-12T14:47:43.341Z,16.27
2023-05-12T14:50:09.600Z,16.53
2023-05-12T14:52:35.850Z,16.59
2023-05-12T14:55:02.084Z,16.81
2023-05-12T14:57:28.363Z,16.64
2023-05-12T14:59:54.622Z,16.42
2023-05-12T15:02:20.961Z,16.49
2023-05-12T15:04:47.200Z,16.85
2023-05-12T15:07:13.499Z,16.56
2023-05-12T15:09:39.745Z,16.57
2023-05-12T15:12:06.025Z,16.67
2023-05-12T15:14:32.336Z,16.04
2023-05-12T15:16:58.603Z,16.36
2023-05-12T15:19:24.936Z,16.77
2023-05-12T15:21:51.332Z,16.36
2023-05-12T15:24:17.631Z,16.51
2023-05-12T15:26:43.875Z,16.75
2023-05-12T15:29:10.143Z,16.61
2023-05-12T15:31:36.439Z,16.83
2023-05-12T15:34:02.711Z,16.79
2023-05-12T15:36:28.932Z,16.97
2023-05-12T15:38:55.183Z,17.11
2023-05-12T15:41:21.486Z,16.83
2023-05-12T15:43:47.800Z,16.31
2023-05-12T15:46:14.083Z,16.17
2023-05-12T15:48:40.398Z,16.18
2023-05-12T15:51:06.648Z,15.59
2023-05-12T15:53:32.880Z,15.52
2023-05-12T15:55:59.207Z,15.83
2023-05-12T15:58:25.438Z,15.26
2023-05-12T16:00:51.680Z,15.29
2023-05-12T16:03:18.075Z,15.40
2023-05-12T16:05:44.347Z,15.30
2023-05-12T16:08:10.575Z,15.03
2023-05-12T16:10:37.220Z,15.11
2023-05-12T16:13:03.458Z,14.99
2023-05-12T16:15:29.689Z,15.16
2023-05-12T16:17:56.050Z,15.32
2023-05-12T16:20:22.309Z,14.69
2023-05-12T16:22:48.590Z,14.12
2023-05-12T16:25:14.880Z,13.68
2023-05-12T16:27:41.106Z,14.27
2023-05-12T16:30:07.533Z,14.09
2023-05-12T16:32:33.842Z,14.31
2023-05-12T16:35:00.171Z,14.97
2023-05-12T16:37:26.435Z,14.73
2023-05-12T16:39:52.687Z,15.11
2023-05-12T16:42:18.936Z,15.09
2023-05-12T16:44:46.429Z,15.16
2023-05-12T16:47:12.694Z,15.10
2023-05-12T16:49:39.151Z,14.55
2023-05-12T16:52:07.211Z,14.86
2023-05-12T16:54:33.462Z,14.87
2023-05-12T16:56:59.706Z,15.25
2023-05-12T16:59:25.936Z,14.86
2023-05-12T17:01:52.217Z,14.71
2023-05-12T17:04:18.533Z,15.03
2023-05-12T17:06:44.805Z,15.23
2023-05-12T17:09:11.043Z,14.80
2023-05-12T17:11:37.299Z,14.55
2023-05-12T17:14:03.540Z,14.19
2023-05-12T17:16:29.835Z,14.40
2023-05-12T17:21:25.327Z,13.68
2023-05-12T17:23:51.586Z,13.48
2023-05-12T17:26:17.980Z,13.58
2023-05-12T17:28:44.212Z,13.83
2023-05-12T17:31:10.519Z,14.08
2023-05-12T17:33:36.839Z,13.95
2023-05-12T17:36:11.523Z,13.60
2023-05-12T17:38:38.888Z,13.92
2023-05-12T17:41:05.133Z,14.03
2023-05-12T17:43:31.376Z,14.14
2023-05-12T17:45:57.668Z,14.18
2023-05-12T17:48:23.908Z,14.13
2023-05-12T17:50:50.132Z,14.01
2023-05-12T17:53:16.356Z,13.83
2023-05-12T17:55:42.604Z,13.70
2023-05-12T17:58:08.890Z,13.76
2023-05-12T18:00:35.165Z,13.61
2023-05-12T18:03:01.522Z,13.50
2023-05-12T18:05:27.854Z,13.25
2023-05-12T18:07:54.105Z,12.82
2023-05-12T18:10:20.326Z,12.06
2023-05-12T18:12:46.545Z,12.23
2023-05-12T18:15:12.791Z,12.35
2023-05-12T18:17:39.124Z,12.50
2023-05-12T18:20:05.384Z,12.51
2023-05-12T18:22:31.694Z,12.50
2023-05-12T18:24:57.920Z,12.51
2023-05-12T18:27:24.172Z,12.40
2023-05-12T18:29:50.433Z,12.25
2023-05-12T18:32:16.670Z,12.17
2023-05-12T18:34:42.935Z,12.01
2023-05-12T18:37:09.209Z,11.93
2023-05-12T18:39:35.490Z,12.07
2023-05-12T18:42:01.796Z,11.71
2023-05-12T18:44:28.043Z,11.66
2023-05-12T18:46:54.334Z,11.74
2023-05-12T18:49:20.584Z,11.26
2023-05-12T18:51:46.829Z,11.10
2023-05-12T18:54:13.066Z,11.17
2023-05-12T18:56:39.346Z,10.94
2023-05-12T18:59:05.610Z,11.16
2023-05-12T19:01:31.966Z,11.15
2023-05-12T19:03:58.242Z,11.25
2023-05-12T19:06:24.511Z,11.70
2023-05-12T19:08:50.762Z,12.16
2023-05-12T19:11:17.015Z,11.88
2023-05-12T19:13:44.499Z,11.82
2023-05-12T19:16:10.838Z,11.37
2023-05-12T19:18:37.184Z,11.98
2023-05-12T19:21:03.482Z,12.26
2023-05-12T19:23:29.762Z,12.03
2023-05-12T19:25:56.051Z,12.16
2023-05-12T19:28:22.341Z,12.30
2023-05-12T19:30:48.634Z,12.44
2023-05-12T19:33:17.234Z,12.41
2023-05-12T19:35:43.804Z,12.33
2023-05-12T19:38:10.057Z,12.31
2023-05-12T19:40:36.376Z,11.65
2023-05-12T19:43:02.662Z,11.39
2023-05-12T19:45:29.013Z,11.52
2023-05-12T19:47:55.470Z,11.62
2023-05-12T19:50:21.810Z,11.85
2023-05-12T19:52:48.121Z,12.01
2023-05-12T19:55:14.398Z,11.93
2023-05-12T19:57:40.698Z,11.81
2023-05-12T20:00:08.090Z,11.80
2023-05-12T20:02:34.403Z,11.89
2023-05-12T20:05:00.719Z,12.20
2023-05-12T20:07:26.978Z,12.37
2023-05-12T20:09:53.234Z,12.21
2023-05-12T20:12:19.506Z,11.71
2023-05-12T20:14:48.085Z,10.97
2023-05-12T20:17:14.402Z,11.35
2023-05-12T20:19:40.703Z,11.78
2023-05-12T20:22:08.886Z,12.01
2023-05-12T20:24:35.215Z,12.01
2023-05-12T20:27:01.540Z,12.09
2023-05-12T20:29:27.810Z,11.76
2023-05-12T20:31:54.133Z,11.53
2023-05-12T20:34:21.075Z,11.33
2023-05-12T20:36:47.357Z,11.50
2023-05-12T20:39:13.621Z,10.78
2023-05-12T20:41:39.889Z,10.51
2023-05-12T20:44:06.234Z,10.60
2023-05-12T20:46:33.128Z,10.92
2023-05-12T20:49:00.694Z,11.54
2023-05-12T20:51:26.931Z,11.90
2023-05-12T20:53:53.178Z,12.17
2023-05-12T20:56:19.455Z,12.27
2023-05-12T20:58:45.694Z,12.17
2023-05-12T21:01:13.187Z,12.33
2023-05-12T21:03:39.517Z,12.47
2023-05-12T21:06:05.789Z,12.41
2023-05-12T21:08:32.056Z,12.52
2023-05-12T21:10:58.341Z,12.48
2023-05-12T21:13:24.653Z,12.45
2023-05-12T21:15:50.888Z,12.37
2023-05-12T21:18:17.121Z,12.47
2023-05-12T21:20:43.341Z,12.49
2023-05-12T21:23:09.567Z,12.18
2023-05-12T21:25:35.813Z,12.09
2023-05-12T21:28:02.061Z,11.83
2023-05-12T21:30:28.301Z,11.83
2023-05-12T21:32:54.570Z,11.82
2023-05-12T21:35:20.851Z,11.91
2023-05-12T21:37:47.072Z,11.83
2023-05-12T21:40:13.309Z,11.82
2023-05-12T21:42:39.525Z,11.59
2023-05-12T21:45:05.784Z,11.63
2023-05-12T21:47:32.087Z,11.36
2023-05-12T21:49:58.486Z,10.90
2023-05-12T21:52:24.794Z,11.20
2023-05-12T21:54:51.040Z,10.99
2023-05-12T21:57:17.284Z,10.96
2023-05-12T21:59:43.549Z,10.83
2023-05-12T22:02:09.955Z,10.83
2023-05-12T22:04:36.258Z,10.94
2023-05-12T22:07:02.492Z,10.80
2023-05-12T22:09:30.965Z,11.25
2023-05-12T22:11:57.472Z,11.19
2023-05-12T22:14:23.742Z,10.78
2023-05-12T22:16:50.015Z,10.40
2023-05-12T22:19:16.281Z,10.75
2023-05-12T22:21:42.556Z,10.99
2023-05-12T22:24:08.840Z,11.23
2023-05-12T22:26:35.070Z,11.43
2023-05-12T22:29:01.311Z,11.54
2023-05-12T22:31:27.599Z,11.61
2023-05-12T22:33:53.886Z,11.61
2023-05-12T22:36:20.141Z,11.58
2023-05-12T22:38:46.420Z,11.54
2023-05-12T22:41:12.646Z,11.44
2023-05-12T22:43:38.886Z,11.08
2023-05-12T22:46:05.128Z,10.92
2023-05-12T22:48:33.872Z,10.67
2023-05-12T22:51:02.371Z,10.68
2023-05-12T22:53:28.783Z,10.05
2023-05-12T22:55:55.028Z,10.03
2023-05-12T22:58:21.251Z,10.22
2023-05-12T23:00:47.512Z,10.50
2023-05-12T23:03:13.782Z,10.69
2023-05-12T23:05:40.031Z,10.83
2023-05-12T23:08:06.271Z,10.93
2023-05-12T23:10:32.514Z,10.82
2023-05-12T23:12:58.748Z,10.86
2023-05-12T23:15:24.997Z,10.50
2023-05-12T23:17:51.297Z,10.34
2023-05-12T23:20:17.560Z,10.44
2023-05-12T23:22:43.812Z,10.29
2023-05-12T23:25:10.228Z,10.12
2023-05-12T23:27:36.550Z,9.73
2023-05-12T23:30:02.820Z,9.45
2023-05-12T23:32:29.221Z,9.61
2023-05-12T23:34:55.527Z,9.62
2023-05-12T23:37:21.777Z,10.05
2023-05-12T23:39:48.036Z,10.26
2023-05-12T23:42:14.340Z,10.56
2023-05-12T23:44:40.674Z,10.58
2023-05-12T23:47:06.917Z,10.43
2023-05-12T23:49:33.161Z,9.98
2023-05-12T23:51:59.421Z,10.01
2023-05-12T23:54:25.701Z,9.35
2023-05-12T23:56:51.955Z,9.23
2023-05-12T23:59:18.185Z,9.80
